Aérodrome :
LOGIN :

S'inscrire | Disclaimer

   EN    FR    IT 

 










Légende :    VFR   VFR Marginal   IFR   IFR Intensif   IFR Très Intensif
Visi : 
Plafond : 
>= 8 km
>= 3000ft
5 à 8 km
1000 à 3000 ft
1500m à 5 km
500 à 1000 ft
800 à 1500m
200 à 500 ft
< 800m
< 200 ft
Symboles :   Orages  Brouillard  Fortes neiges  Fortes précipitations  Vent > 20 kt
SIGMETs :   Divers  Orages  Givrage  Turbulence  Onde Orograph.  Cendres Volcan.







- Altitude de l'aérodrome : 885 ft
- Code IATA : BAS
- Voir les cartes d'approche


LFSB - Bale-Mulhouse

DERNIER METAR :
  • 181800Z 21002KT 6000 MIFG BKN009 01/00 Q1026 BECMG 4000 BR

METARs EXPIRÉS :
  • 181730Z 00000KT 6000 OVC009 01/00 Q1026 BECMG 4000 BR
  • 181700Z VRB02KT 8000 BKN009 OVC023 02/01 Q1025 TEMPO 5000 BR
  • 181630Z VRB03KT 9999 BKN009 BKN023 02/01 Q1025 NOSIG
  • 181600Z 15002KT 9999 FEW008 BKN009 01/00 Q1024 NOSIG
  • 181530Z 16004KT 9999 FEW008 BKN009 BKN010 01/01 Q1024 TEMPO 28006KT BKN013

TAF TAF LFSB
Valide du 18 à 18h jusqu'au 19 à 18h UTC


181700Z 1818/1918 VRB03KT 6000 BKN010 BKN025
BECMG 1818/1821 4000 BR BKN005
PROB30
TEMPO 1818/1824 1500 BCFG
TEMPO 1900/1906 1500 -DZ -SG BR OVC003
TEMPO 1906/1909 2500
BECMG 1910/1912 8000 NSW BKN010 OVC020
PROB40
TEMPO 1914/1916 SCT015 BKN025
TEMPO 1916/1918 4000 BR BKN005
Météo : +33 3 89 90 31 11
Pas de NOTAMs connus pour ce terrain.



MET'MAP, la Météo Aéronautique d'un coup d'oeil ! - Copyright ORBIFLY Décembre 2007 - Disclaimer

ORBIFLY MET'MAP TEAM :

Programmation & Développement : Alexandra Zaïnal
Conception & Développement : Baudouin d'Aumeries
Co-Programmation & Développement : Marc-Olivier Méhu
Soutien technique & logistique : Manuel Goepfert

Contact : metmap@orbifly.com




SOURCES & CREDITS :

   NOAA